createdAt,value
2018-11-01T00:01:16.152Z,10.61
2018-11-01T00:03:45.082Z,10.61
2018-11-01T00:06:13.837Z,10.58
2018-11-01T00:08:42.512Z,10.58
2018-11-01T00:11:11.142Z,10.58
2018-11-01T00:13:39.931Z,10.52
2018-11-01T00:16:08.595Z,10.46
2018-11-01T00:18:37.262Z,10.49
2018-11-01T00:21:07.311Z,10.49
2018-11-01T00:23:36.485Z,10.48
2018-11-01T00:26:05.316Z,10.44
2018-11-01T00:28:33.954Z,10.35
2018-11-01T00:31:03.006Z,10.35
2018-11-01T00:33:32.474Z,10.33
2018-11-01T00:36:01.986Z,10.25
2018-11-01T00:38:30.937Z,10.18
2018-11-01T00:40:59.640Z,10.21
2018-11-01T00:43:28.412Z,10.22
2018-11-01T00:45:57.309Z,10.18
2018-11-01T00:48:25.919Z,10.12
2018-11-01T00:50:54.672Z,10.09
2018-11-01T00:53:23.300Z,10.09
2018-11-01T00:55:52.019Z,10.11
2018-11-01T00:58:20.766Z,10.12
2018-11-01T01:00:49.484Z,10.13
2018-11-01T01:03:18.099Z,10.10
2018-11-01T01:05:46.877Z,10.12
2018-11-01T01:08:15.484Z,10.09
2018-11-01T01:10:44.065Z,10.06
2018-11-01T01:13:12.716Z,10.02
2018-11-01T01:15:41.463Z,10.00
2018-11-01T01:18:10.015Z,9.99
2018-11-01T01:20:38.642Z,9.97
2018-11-01T01:23:07.496Z,10.00
2018-11-01T01:25:36.199Z,10.00
2018-11-01T01:28:04.908Z,10.02
2018-11-01T01:30:33.512Z,10.03
2018-11-01T01:33:02.911Z,9.97
2018-11-01T01:35:31.478Z,9.98
2018-11-01T01:38:00.257Z,9.98
2018-11-01T01:40:28.896Z,9.93
2018-11-01T01:42:57.692Z,9.94
2018-11-01T01:45:26.462Z,9.86
2018-11-01T01:47:55.160Z,9.81
2018-11-01T01:50:23.891Z,9.85
2018-11-01T01:52:52.839Z,9.87
2018-11-01T01:55:22.202Z,9.82
2018-11-01T01:57:51.171Z,9.75
2018-11-01T02:00:21.218Z,9.71
2018-11-01T02:02:52.026Z,9.72
2018-11-01T02:05:20.685Z,9.69
2018-11-01T02:07:49.566Z,9.66
2018-11-01T02:10:18.917Z,9.62
2018-11-01T02:12:47.613Z,9.60
2018-11-01T02:15:19.083Z,9.62
2018-11-01T02:17:47.993Z,9.61
2018-11-01T02:20:18.090Z,9.55
2018-11-01T02:22:47.180Z,9.50
2018-11-01T02:25:16.080Z,9.55
2018-11-01T02:27:50.195Z,9.57
2018-11-01T02:30:19.501Z,9.54
2018-11-01T02:32:48.410Z,9.54
2018-11-01T02:35:18.266Z,9.56
2018-11-01T02:37:47.067Z,9.53
2018-11-01T02:40:16.332Z,9.53
2018-11-01T02:42:45.176Z,9.56
2018-11-01T02:45:14.709Z,9.57
2018-11-01T02:47:43.471Z,9.51
2018-11-01T02:50:13.250Z,9.48
2018-11-01T02:52:42.432Z,9.47
2018-11-01T02:55:11.538Z,9.42
2018-11-01T02:57:40.336Z,9.37
2018-11-01T03:00:10.334Z,9.34
2018-11-01T03:02:39.069Z,9.30
2018-11-01T03:05:08.510Z,9.30
2018-11-01T03:07:37.364Z,9.26
2018-11-01T03:10:07.432Z,9.23
2018-11-01T03:12:36.305Z,9.17
2018-11-01T03:15:05.627Z,9.13
2018-11-01T03:17:34.298Z,9.06
2018-11-01T03:20:03.251Z,9.04
2018-11-01T03:22:31.841Z,9.04
2018-11-01T03:25:00.735Z,8.97
2018-11-01T03:27:29.514Z,8.91
2018-11-01T03:29:58.439Z,8.91
2018-11-01T03:32:27.145Z,8.90
2018-11-01T03:34:55.988Z,8.85
2018-11-01T03:37:24.575Z,8.84
2018-11-01T03:39:53.459Z,8.86
2018-11-01T03:42:22.228Z,8.81
2018-11-01T03:44:50.823Z,8.86
2018-11-01T03:47:19.485Z,8.81
2018-11-01T03:49:48.121Z,8.82
2018-11-01T03:52:16.740Z,8.78
2018-11-01T03:54:45.397Z,8.77
2018-11-01T03:57:14.186Z,8.75
2018-11-01T03:59:42.840Z,8.74
2018-11-01T04:02:11.512Z,8.73
2018-11-01T04:04:40.300Z,8.67
2018-11-01T04:07:08.993Z,8.66
2018-11-01T04:09:37.826Z,8.62
2018-11-01T04:12:06.495Z,8.61
2018-11-01T04:14:35.067Z,8.61
2018-11-01T04:17:03.932Z,8.56
2018-11-01T04:19:32.492Z,8.59
2018-11-01T04:22:03.639Z,8.57
2018-11-01T04:24:32.781Z,8.55
2018-11-01T04:27:01.735Z,8.56
2018-11-01T04:29:30.444Z,8.54
2018-11-01T04:31:59.116Z,8.54
2018-11-01T04:34:27.707Z,8.53
2018-11-01T04:36:56.637Z,8.55
2018-11-01T04:39:25.226Z,8.52
2018-11-01T04:41:54.173Z,8.51
2018-11-01T04:44:22.772Z,8.44
2018-11-01T04:46:51.416Z,8.33
2018-11-01T04:49:20.060Z,8.42
2018-11-01T04:51:48.771Z,8.45
2018-11-01T04:54:17.354Z,8.48
2018-11-01T04:56:46.110Z,8.47
2018-11-01T04:59:14.804Z,8.52
2018-11-01T05:01:43.487Z,8.50
2018-11-01T05:04:12.097Z,8.46
2018-11-01T05:06:40.947Z,8.42
2018-11-01T05:09:09.585Z,8.36
2018-11-01T05:11:38.357Z,8.36
2018-11-01T05:14:06.993Z,8.36
2018-11-01T05:16:35.643Z,8.47
2018-11-01T05:19:04.207Z,8.49
2018-11-01T05:21:32.824Z,8.51
2018-11-01T05:24:02.878Z,8.52
2018-11-01T05:26:32.658Z,8.51
2018-11-01T05:29:01.726Z,8.47
2018-11-01T05:31:30.394Z,8.44
2018-11-01T05:33:59.634Z,8.39
2018-11-01T05:36:28.235Z,8.40
2018-11-01T05:38:56.922Z,8.38
2018-11-01T05:41:25.651Z,8.39
2018-11-01T05:43:54.367Z,8.36
2018-11-01T05:46:23.129Z,8.40
2018-11-01T05:48:51.748Z,8.37
2018-11-01T05:51:20.503Z,8.35
2018-11-01T05:53:49.290Z,8.26
2018-11-01T05:56:17.994Z,8.18
2018-11-01T05:58:46.648Z,8.20
2018-11-01T06:01:19.331Z,8.21
2018-11-01T06:03:48.199Z,8.23
2018-11-01T06:06:16.840Z,8.27
2018-11-01T06:08:46.212Z,8.36
2018-11-01T06:11:14.781Z,8.36
2018-11-01T06:13:43.494Z,8.35
2018-11-01T06:16:12.333Z,8.21
2018-11-01T06:18:40.996Z,8.05
2018-11-01T06:21:09.791Z,7.90
2018-11-01T06:23:38.764Z,7.87
2018-11-01T06:26:07.569Z,7.84
2018-11-01T06:28:36.251Z,7.86
2018-11-01T06:31:04.958Z,7.96
2018-11-01T06:33:33.613Z,7.99
2018-11-01T06:36:06.124Z,7.98
2018-11-01T06:38:34.777Z,7.97
2018-11-01T06:41:04.502Z,7.92
2018-11-01T06:43:33.032Z,7.93
2018-11-01T06:46:01.709Z,7.89
2018-11-01T06:48:30.342Z,7.91
2018-11-01T06:50:58.998Z,7.91
2018-11-01T06:53:27.816Z,7.87
2018-11-01T06:55:56.391Z,7.77
2018-11-01T06:58:25.261Z,7.81
2018-11-01T07:00:54.551Z,7.85
2018-11-01T07:03:23.180Z,7.88
2018-11-01T07:05:52.990Z,7.92
2018-11-01T07:08:21.775Z,7.99
2018-11-01T07:10:50.456Z,8.01
2018-11-01T07:13:19.196Z,8.02
2018-11-01T07:15:47.826Z,7.99
2018-11-01T07:18:16.367Z,7.95
2018-11-01T07:20:44.989Z,7.91
2018-11-01T07:23:13.624Z,7.89
2018-11-01T07:25:42.500Z,7.95
2018-11-01T07:28:11.628Z,8.00
2018-11-01T07:30:40.265Z,8.04
2018-11-01T07:33:09.571Z,8.02
2018-11-01T07:35:38.194Z,8.02
2018-11-01T07:38:07.194Z,8.03
2018-11-01T07:40:35.909Z,8.11
2018-11-01T07:43:05.638Z,8.24
2018-11-01T07:45:34.303Z,8.29
2018-11-01T07:48:03.728Z,8.27
2018-11-01T07:50:32.444Z,8.31
2018-11-01T07:53:03.398Z,8.27
2018-11-01T07:55:32.063Z,8.28
2018-11-01T07:58:00.800Z,8.29
2018-11-01T08:00:29.452Z,8.34
2018-11-01T08:02:58.193Z,8.39
2018-11-01T08:05:26.905Z,8.49
2018-11-01T08:07:55.656Z,8.55
2018-11-01T08:10:24.343Z,8.62
2018-11-01T08:12:53.164Z,8.56
2018-11-01T08:15:22.437Z,8.54
2018-11-01T08:17:50.964Z,8.62
2018-11-01T08:20:19.838Z,8.67
2018-11-01T08:22:48.221Z,8.78
2018-11-01T08:25:16.931Z,8.83
2018-11-01T08:27:45.459Z,8.90
2018-11-01T08:30:16.824Z,9.00
2018-11-01T08:32:46.245Z,9.09
2018-11-01T08:35:14.936Z,9.18
2018-11-01T08:37:45.399Z,9.12
2018-11-01T08:40:14.543Z,9.23
2018-11-01T08:42:43.517Z,9.31
2018-11-01T08:45:13.267Z,9.27
2018-11-01T08:47:42.295Z,9.31
2018-11-01T08:50:12.417Z,9.35
2018-11-01T08:52:42.243Z,9.44
2018-11-01T08:55:11.292Z,9.53
2018-11-01T08:57:40.647Z,9.58
2018-11-01T09:00:12.792Z,9.61
2018-11-01T09:02:42.606Z,9.75
2018-11-01T09:05:12.318Z,9.78
2018-11-01T09:07:41.352Z,9.84
2018-11-01T09:10:12.509Z,9.89
2018-11-01T09:12:41.495Z,9.73
2018-11-01T09:15:12.012Z,9.84
2018-11-01T09:17:41.774Z,9.89
2018-11-01T09:20:11.144Z,9.98
2018-11-01T09:22:40.463Z,9.87
2018-11-01T09:25:09.127Z,9.97
2018-11-01T09:27:37.781Z,9.97
2018-11-01T09:30:10.915Z,9.93
2018-11-01T09:32:39.919Z,9.91
2018-11-01T09:35:10.634Z,10.03
2018-11-01T09:37:40.424Z,10.05
2018-11-01T09:40:10.623Z,10.17
2018-11-01T09:42:40.344Z,10.28
2018-11-01T09:45:09.072Z,10.31
2018-11-01T09:47:38.102Z,10.38
2018-11-01T09:50:08.133Z,10.45
2018-11-01T09:52:36.945Z,10.50
2018-11-01T09:55:05.913Z,10.56
2018-11-01T09:57:35.283Z,10.63
2018-11-01T10:00:04.463Z,10.71
2018-11-01T10:02:33.232Z,10.75
2018-11-01T10:05:02.316Z,10.86
2018-11-01T10:07:31.399Z,10.96
2018-11-01T10:10:00.694Z,11.00
2018-11-01T10:12:29.748Z,10.98
2018-11-01T10:14:58.981Z,10.98
2018-11-01T10:17:29.165Z,11.00
2018-11-01T10:19:57.413Z,11.03
2018-11-01T10:22:26.247Z,11.09
2018-11-01T10:24:54.795Z,11.15
2018-11-01T10:27:23.355Z,11.18
2018-11-01T10:29:52.117Z,11.23
2018-11-01T10:32:20.751Z,11.28
2018-11-01T10:34:49.468Z,11.30
2018-11-01T10:37:18.219Z,11.33
2018-11-01T10:39:46.727Z,11.40
2018-11-01T10:42:15.275Z,11.40
2018-11-01T10:44:43.927Z,11.42
2018-11-01T10:47:12.889Z,11.39
2018-11-01T10:49:41.575Z,11.38
2018-11-01T10:52:10.290Z,11.41
2018-11-01T10:54:38.937Z,11.42
2018-11-01T10:57:08.252Z,11.43
2018-11-01T10:59:36.925Z,11.35
2018-11-01T11:02:11.582Z,11.36
2018-11-01T11:04:40.833Z,11.42
2018-11-01T11:07:09.522Z,11.41
2018-11-01T11:09:38.220Z,11.43
2018-11-01T11:12:07.281Z,11.47
2018-11-01T11:14:36.037Z,11.45
2018-11-01T11:17:04.656Z,11.46
2018-11-01T11:19:33.426Z,11.50
2018-11-01T11:22:02.421Z,11.55
2018-11-01T11:24:31.157Z,11.55
2018-11-01T11:27:00.662Z,11.58
2018-11-01T11:29:29.702Z,11.64
2018-11-01T11:31:58.892Z,11.63
2018-11-01T11:34:27.881Z,11.64
2018-11-01T11:36:56.864Z,11.66
2018-11-01T11:39:25.728Z,11.70
2018-11-01T11:41:54.780Z,11.71
2018-11-01T11:44:24.310Z,11.79
2018-11-01T11:46:53.121Z,11.76
2018-11-01T11:49:21.797Z,11.75
2018-11-01T11:51:50.531Z,11.76
2018-11-01T11:54:19.489Z,11.78
2018-11-01T11:56:48.332Z,11.78
2018-11-01T11:59:17.131Z,11.75
2018-11-01T12:01:45.839Z,11.78
2018-11-01T12:04:15.088Z,11.76
2018-11-01T12:06:43.839Z,11.78
2018-11-01T12:09:12.767Z,11.77
2018-11-01T12:11:41.608Z,11.76
2018-11-01T12:14:10.405Z,11.78
2018-11-01T12:16:39.566Z,11.76
2018-11-01T12:19:08.197Z,11.77
2018-11-01T12:21:36.941Z,11.87
2018-11-01T12:24:06.053Z,11.99
2018-11-01T12:26:34.959Z,12.04
2018-11-01T12:29:04.131Z,12.08
2018-11-01T12:31:32.751Z,12.06
2018-11-01T12:34:01.983Z,12.07
2018-11-01T12:36:30.612Z,12.19
2018-11-01T12:38:59.218Z,12.25
2018-11-01T12:41:27.960Z,12.29
2018-11-01T12:43:56.550Z,12.41
2018-11-01T12:46:25.205Z,12.50
2018-11-01T12:48:53.805Z,12.58
2018-11-01T12:51:23.434Z,12.61
2018-11-01T12:53:52.052Z,12.68
2018-11-01T12:56:20.708Z,12.71
2018-11-01T12:58:49.251Z,12.76
2018-11-01T13:01:18.200Z,12.82
2018-11-01T13:03:46.799Z,12.80
2018-11-01T13:06:15.452Z,12.71
2018-11-01T13:08:44.043Z,12.66
2018-11-01T13:11:12.641Z,12.52
2018-11-01T13:13:41.372Z,12.59
2018-11-01T13:16:09.913Z,12.61
2018-11-01T13:18:38.474Z,12.64
2018-11-01T13:21:07.020Z,12.64
2018-11-01T13:23:35.590Z,12.57
2018-11-01T13:26:04.161Z,12.51
2018-11-01T13:28:32.775Z,12.47
2018-11-01T13:31:02.718Z,12.46
2018-11-01T13:33:31.343Z,12.39
2018-11-01T13:35:59.903Z,12.30
2018-11-01T13:38:28.547Z,12.32
2018-11-01T13:40:57.693Z,12.32
2018-11-01T13:43:25.910Z,12.29
2018-11-01T13:45:54.486Z,12.27
2018-11-01T13:48:23.252Z,12.28
2018-11-01T13:50:51.738Z,12.28
2018-11-01T13:53:20.374Z,12.29
2018-11-01T13:55:48.952Z,12.27
2018-11-01T13:58:17.537Z,12.31
2018-11-01T14:00:46.210Z,12.30
2018-11-01T14:03:14.715Z,12.26
2018-11-01T14:05:43.587Z,12.22
2018-11-01T14:08:12.047Z,12.22
2018-11-01T14:10:40.742Z,12.11
2018-11-01T14:13:09.314Z,12.17
2018-11-01T14:15:38.003Z,12.19
2018-11-01T14:18:06.630Z,12.24
2018-11-01T14:20:36.180Z,12.29
2018-11-01T14:23:05.919Z,12.30
2018-11-01T14:25:34.806Z,12.29
2018-11-01T14:28:04.472Z,12.28
2018-11-01T14:30:33.174Z,12.26
2018-11-01T14:33:02.713Z,12.13
2018-11-01T14:35:31.397Z,12.11
2018-11-01T14:38:00.457Z,12.10
2018-11-01T14:40:29.082Z,12.08
2018-11-01T14:42:58.097Z,12.05
2018-11-01T14:45:26.862Z,11.96
2018-11-01T14:47:55.815Z,11.97
2018-11-01T14:50:24.636Z,11.95
2018-11-01T14:52:53.596Z,11.92
2018-11-01T14:55:22.872Z,11.90
2018-11-01T14:57:58.262Z,11.87
2018-11-01T15:00:25.563Z,11.82
2018-11-01T15:02:54.302Z,11.81
2018-11-01T15:05:23.036Z,11.71
2018-11-01T15:07:51.583Z,11.79
2018-11-01T15:10:20.253Z,11.81
2018-11-01T15:12:48.912Z,11.87
2018-11-01T15:15:17.605Z,11.84
2018-11-01T15:17:46.424Z,11.77
2018-11-01T15:20:15.139Z,11.78
2018-11-01T15:22:43.761Z,11.78
2018-11-01T15:25:12.477Z,11.75
2018-11-01T15:27:41.158Z,11.75
2018-11-01T15:30:13.881Z,11.71
2018-11-01T15:32:42.539Z,11.68
2018-11-01T15:35:11.323Z,11.72
2018-11-01T15:37:40.224Z,11.71
2018-11-01T15:40:10.633Z,11.74
2018-11-01T15:42:39.370Z,11.76
2018-11-01T15:45:09.063Z,11.78
2018-11-01T15:47:38.088Z,11.76
2018-11-01T15:50:07.632Z,11.74
2018-11-01T15:52:36.282Z,11.77
2018-11-01T15:55:05.764Z,11.78
2018-11-01T15:57:34.404Z,11.82
2018-11-01T16:00:03.828Z,11.82
2018-11-01T16:02:32.541Z,11.82
2018-11-01T16:05:01.682Z,11.80
2018-11-01T16:07:30.253Z,11.80
2018-11-01T16:09:59.132Z,11.76
2018-11-01T16:12:27.755Z,11.76
2018-11-01T16:14:56.453Z,11.69
2018-11-01T16:17:25.013Z,11.68
2018-11-01T16:19:53.830Z,11.63
2018-11-01T16:22:22.313Z,11.58
2018-11-01T16:24:50.953Z,11.56
2018-11-01T16:27:19.699Z,11.56
2018-11-01T16:29:48.288Z,11.59
2018-11-01T16:32:16.817Z,11.55
2018-11-01T16:34:45.449Z,11.50
2018-11-01T16:37:14.217Z,11.41
2018-11-01T16:39:43.034Z,11.38
2018-11-01T16:42:11.767Z,11.34
2018-11-01T16:44:40.551Z,11.37
2018-11-01T16:47:09.294Z,11.35
2018-11-01T16:52:25.575Z,11.35
2018-11-01T16:54:54.230Z,11.33
2018-11-01T16:57:22.861Z,11.31
2018-11-01T16:59:51.463Z,11.29
2018-11-01T17:02:20.082Z,11.29
2018-11-01T17:04:48.706Z,11.28
2018-11-01T17:07:17.281Z,11.27
2018-11-01T17:09:46.025Z,11.27
2018-11-01T17:12:14.731Z,11.27
2018-11-01T17:14:43.320Z,11.32
2018-11-01T17:17:11.902Z,11.32
2018-11-01T17:19:40.415Z,11.38
2018-11-01T17:22:09.059Z,11.41
2018-11-01T17:24:38.090Z,11.44
2018-11-01T17:27:07.066Z,11.47
2018-11-01T17:29:35.986Z,11.50
2018-11-01T17:32:04.870Z,11.49
2018-11-01T17:34:33.685Z,11.51
2018-11-01T17:37:02.319Z,11.52
2018-11-01T17:39:31.121Z,11.55
2018-11-01T17:41:59.877Z,11.54
2018-11-01T17:44:28.767Z,11.55
2018-11-01T17:46:57.533Z,11.56
2018-11-01T17:49:26.104Z,11.57
2018-11-01T17:51:55.546Z,11.57
2018-11-01T17:54:24.175Z,11.57
2018-11-01T17:56:52.892Z,11.56
2018-11-01T17:59:21.554Z,11.54
2018-11-01T18:01:50.525Z,11.52
2018-11-01T18:04:19.073Z,11.50
2018-11-01T18:06:47.713Z,11.45
2018-11-01T18:09:16.676Z,11.41
2018-11-01T18:11:45.629Z,11.40
2018-11-01T18:14:14.400Z,11.38
2018-11-01T18:16:42.972Z,11.36
2018-11-01T18:19:11.720Z,11.38
2018-11-01T18:21:40.368Z,11.38
2018-11-01T18:24:09.140Z,11.46
2018-11-01T18:26:37.782Z,11.48
2018-11-01T18:29:06.816Z,11.46
2018-11-01T18:31:35.558Z,11.46
2018-11-01T18:34:04.805Z,11.45
2018-11-01T18:36:33.427Z,11.43
2018-11-01T18:39:03.807Z,11.38
2018-11-01T18:41:32.481Z,11.35
2018-11-01T18:44:02.296Z,11.35
2018-11-01T18:46:30.928Z,11.29
2018-11-01T18:48:59.776Z,11.22
2018-11-01T18:51:28.616Z,11.14
2018-11-01T18:53:57.466Z,11.02
2018-11-01T18:56:26.199Z,10.96
2018-11-01T18:58:54.914Z,10.94
2018-11-01T19:01:23.792Z,10.83
2018-11-01T19:03:52.784Z,10.78
2018-11-01T19:06:21.406Z,10.73
2018-11-01T19:08:50.050Z,10.64
2018-11-01T19:11:18.701Z,10.61
2018-11-01T19:13:47.735Z,10.59
2018-11-01T19:16:16.452Z,10.62
2018-11-01T19:18:45.291Z,10.66
2018-11-01T19:21:14.084Z,10.69
2018-11-01T19:23:42.682Z,10.67
2018-11-01T19:26:11.312Z,10.61
2018-11-01T19:28:39.938Z,10.56
2018-11-01T19:31:08.597Z,10.54
2018-11-01T19:33:37.240Z,10.54
2018-11-01T19:36:05.925Z,10.56
2018-11-01T19:38:34.537Z,10.54
2018-11-01T19:41:03.609Z,10.44
2018-11-01T19:43:33.362Z,10.40
2018-11-01T19:46:02.266Z,10.36
2018-11-01T19:48:31.246Z,10.32
2018-11-01T19:50:59.913Z,10.28
2018-11-01T19:53:28.613Z,10.24
2018-11-01T19:55:57.435Z,10.22
2018-11-01T19:58:26.211Z,10.19
2018-11-01T20:00:54.752Z,10.16
2018-11-01T20:03:23.408Z,10.10
2018-11-01T20:05:52.136Z,10.05
2018-11-01T20:08:20.868Z,10.02
2018-11-01T20:10:49.449Z,10.02
2018-11-01T20:13:17.981Z,9.99
2018-11-01T20:15:46.728Z,9.96
2018-11-01T20:18:15.285Z,10.00
2018-11-01T20:20:43.917Z,10.00
2018-11-01T20:23:13.683Z,10.02
2018-11-01T20:25:42.750Z,10.00
2018-11-01T20:28:12.903Z,9.95
2018-11-01T20:30:43.360Z,9.96
2018-11-01T20:33:13.141Z,9.91
2018-11-01T20:35:41.654Z,9.86
2018-11-01T20:38:10.401Z,9.85
2018-11-01T20:40:39.044Z,9.83
2018-11-01T20:43:07.729Z,9.84
2018-11-01T20:45:36.431Z,9.76
2018-11-01T20:48:05.112Z,9.70
2018-11-01T20:50:34.594Z,9.69
2018-11-01T20:53:03.335Z,9.68
2018-11-01T20:55:31.907Z,9.67
2018-11-01T20:58:00.574Z,9.69
2018-11-01T21:00:29.260Z,9.73
2018-11-01T21:02:57.933Z,9.75
2018-11-01T21:05:26.653Z,9.74
2018-11-01T21:07:55.224Z,9.75
2018-11-01T21:10:23.848Z,9.73
2018-11-01T21:12:52.772Z,9.74
2018-11-01T21:15:21.375Z,9.74
2018-11-01T21:17:50.028Z,9.69
2018-11-01T21:20:18.664Z,9.66
2018-11-01T21:22:47.379Z,9.65
2018-11-01T21:25:15.873Z,9.60
2018-11-01T21:27:44.578Z,9.57
2018-11-01T21:30:13.250Z,9.56
2018-11-01T21:32:41.918Z,9.57
2018-11-01T21:35:10.677Z,9.56
2018-11-01T21:37:39.145Z,9.60
2018-11-01T21:40:09.356Z,9.65
2018-11-01T21:42:38.140Z,9.59
2018-11-01T21:45:08.811Z,9.67
2018-11-01T21:47:37.507Z,9.70
2018-11-01T21:50:06.196Z,9.73
2018-11-01T21:52:34.901Z,9.73
2018-11-01T21:55:04.083Z,9.69
2018-11-01T21:57:33.091Z,9.69
2018-11-01T22:00:02.028Z,9.70
2018-11-01T22:02:30.779Z,9.74
2018-11-01T22:04:59.403Z,9.79
2018-11-01T22:07:27.990Z,9.82
2018-11-01T22:09:56.779Z,9.78
2018-11-01T22:12:25.361Z,9.64
2018-11-01T22:14:53.987Z,9.63
2018-11-01T22:17:22.771Z,9.66
2018-11-01T22:19:51.401Z,9.68
2018-11-01T22:22:20.014Z,9.70
2018-11-01T22:24:48.689Z,9.71
2018-11-01T22:27:17.296Z,9.67
2018-11-01T22:29:45.893Z,9.70
2018-11-01T22:32:14.522Z,9.74
2018-11-01T22:34:43.115Z,9.79
2018-11-01T22:37:11.761Z,9.83
2018-11-01T22:39:40.446Z,9.87
2018-11-01T22:42:09.184Z,9.85
2018-11-01T22:44:37.795Z,9.87
2018-11-01T22:47:06.713Z,9.93
2018-11-01T22:49:35.441Z,9.94
2018-11-01T22:52:04.039Z,9.93
2018-11-01T22:54:32.715Z,9.98
2018-11-01T22:57:01.645Z,9.98
2018-11-01T22:59:30.298Z,10.01
2018-11-01T23:01:58.929Z,10.02
2018-11-01T23:04:27.654Z,9.91
2018-11-01T23:06:56.282Z,9.80
2018-11-01T23:09:24.951Z,9.77
2018-11-01T23:11:53.637Z,9.69
2018-11-01T23:14:22.283Z,9.64
2018-11-01T23:16:50.848Z,9.56
2018-11-01T23:19:19.421Z,9.49
2018-11-01T23:21:48.396Z,9.51
2018-11-01T23:24:16.960Z,9.48
2018-11-01T23:26:45.530Z,9.49
2018-11-01T23:29:14.271Z,9.53
2018-11-01T23:31:43.025Z,9.59
2018-11-01T23:34:11.592Z,9.54
2018-11-01T23:36:45.405Z,9.57
2018-11-01T23:39:19.093Z,9.56
2018-11-01T23:41:53.023Z,9.56
2018-11-01T23:44:26.855Z,9.60
2018-11-01T23:47:00.627Z,9.63
2018-11-01T23:49:33.351Z,9.59
2018-11-01T23:52:07.271Z,9.66
2018-11-01T23:54:35.774Z,9.68
2018-11-01T23:57:04.391Z,9.73
2018-11-01T23:59:33.256Z,9.79
